createdAt,value
2022-11-03T00:01:46.740Z,4.55
2022-11-03T00:04:17.803Z,4.32
2022-11-03T00:06:45.331Z,3.80
2022-11-03T00:09:13.080Z,3.42
2022-11-03T00:11:40.701Z,4.24
2022-11-03T00:14:07.469Z,3.26
2022-11-03T00:16:34.145Z,4.05
2022-11-03T00:19:01.031Z,3.99
2022-11-03T00:21:27.632Z,3.54
2022-11-03T00:23:54.350Z,2.25
2022-11-03T00:26:22.238Z,3.93
2022-11-03T00:28:53.247Z,3.99
2022-11-03T00:31:27.891Z,3.89
2022-11-03T00:33:54.747Z,3.25
2022-11-03T00:36:32.062Z,2.39
2022-11-03T00:38:58.798Z,3.45
2022-11-03T00:41:25.738Z,3.88
2022-11-03T00:43:52.645Z,4.11
2022-11-03T00:46:20.017Z,4.26
2022-11-03T00:48:46.611Z,2.75
2022-11-03T00:51:14.369Z,4.47
2022-11-03T00:53:48.241Z,4.19
2022-11-03T00:56:16.612Z,4.08
2022-11-03T00:58:43.396Z,3.78
2022-11-03T01:01:13.794Z,4.57
2022-11-03T01:03:41.385Z,3.86
2022-11-03T01:06:27.828Z,4.44
2022-11-03T01:08:54.747Z,4.27
2022-11-03T01:11:42.072Z,3.70
2022-11-03T01:14:59.544Z,4.67
2022-11-03T01:17:27.543Z,4.50
2022-11-03T01:19:54.385Z,4.03
2022-11-03T01:22:21.444Z,4.23
2022-11-03T01:24:48.027Z,3.33
2022-11-03T01:27:16.211Z,4.15
2022-11-03T01:29:42.954Z,3.12
2022-11-03T01:32:10.108Z,3.69
2022-11-03T01:34:36.895Z,4.26
2022-11-03T01:37:03.641Z,4.36
2022-11-03T01:39:30.221Z,4.25
2022-11-03T01:41:56.885Z,4.53
2022-11-03T01:44:24.291Z,4.61
2022-11-03T01:46:54.954Z,4.51
2022-11-03T01:49:34.020Z,3.82
2022-11-03T01:52:08.152Z,3.86
2022-11-03T01:54:34.766Z,4.19
2022-11-03T01:57:01.329Z,3.94
2022-11-03T01:59:27.978Z,3.18
2022-11-03T02:01:54.885Z,3.82
2022-11-03T02:04:27.049Z,2.87
2022-11-03T02:07:14.395Z,3.53
2022-11-03T02:09:41.114Z,3.32
2022-11-03T02:12:08.003Z,4.11
2022-11-03T02:14:40.898Z,3.24
2022-11-03T02:17:09.972Z,3.68
2022-11-03T02:19:41.051Z,4.17
2022-11-03T02:22:17.839Z,4.19
2022-11-03T02:24:53.964Z,2.61
2022-11-03T02:27:21.072Z,2.23
2022-11-03T02:29:47.677Z,2.33
2022-11-03T02:32:22.878Z,3.65
2022-11-03T02:34:54.418Z,3.85
2022-11-03T02:37:26.154Z,3.60
2022-11-03T02:40:05.854Z,3.34
2022-11-03T02:42:32.980Z,3.43
2022-11-03T02:45:00.816Z,3.11
2022-11-03T02:47:27.459Z,3.61
2022-11-03T02:52:41.180Z,3.98
2022-11-03T02:55:15.337Z,3.33
2022-11-03T02:58:10.106Z,2.36
2022-11-03T03:01:00.944Z,4.10
2022-11-03T03:03:35.917Z,3.20
2022-11-03T03:06:02.880Z,4.14
2022-11-03T03:08:29.513Z,3.06
2022-11-03T03:10:56.096Z,2.73
2022-11-03T03:13:22.824Z,3.73
2022-11-03T03:15:56.954Z,4.13
2022-11-03T03:18:27.692Z,2.75
2022-11-03T03:21:01.455Z,3.66
2022-11-03T03:23:31.850Z,3.60
2022-11-03T03:26:12.410Z,3.72
2022-11-03T03:28:43.734Z,4.20
2022-11-03T03:31:11.817Z,3.48
2022-11-03T03:33:40.731Z,3.97
2022-11-03T03:36:12.141Z,3.59
2022-11-03T03:38:44.270Z,3.93
2022-11-03T03:41:12.172Z,3.60
2022-11-03T03:43:38.765Z,3.97
2022-11-03T03:46:08.174Z,4.11
2022-11-03T03:48:34.780Z,3.81
2022-11-03T03:51:01.802Z,3.14
2022-11-03T03:53:29.652Z,2.02
2022-11-03T03:55:56.326Z,3.66
2022-11-03T03:58:23.102Z,2.70
2022-11-03T04:00:49.841Z,3.53
2022-11-03T04:03:21.185Z,3.97
2022-11-03T04:05:48.048Z,3.66
2022-11-03T04:08:15.547Z,3.53
2022-11-03T04:11:02.324Z,3.39
2022-11-03T04:13:47.618Z,3.79
2022-11-03T04:16:32.740Z,3.91
2022-11-03T04:19:18.213Z,3.76
2022-11-03T04:22:03.527Z,4.24
2022-11-03T04:24:30.286Z,3.57
2022-11-03T04:27:02.861Z,3.62
2022-11-03T04:29:29.736Z,3.69
2022-11-03T04:31:56.714Z,4.14
2022-11-03T04:34:24.206Z,2.44
2022-11-03T04:36:50.786Z,3.63
2022-11-03T04:39:19.890Z,3.30
2022-11-03T04:41:46.667Z,4.04
2022-11-03T04:44:16.844Z,3.80
2022-11-03T04:46:44.070Z,3.36
2022-11-03T04:49:20.791Z,3.68
2022-11-03T04:51:47.422Z,4.28
2022-11-03T04:54:15.942Z,2.89
2022-11-03T04:56:42.826Z,3.29
2022-11-03T04:59:11.219Z,2.84
2022-11-03T05:01:38.058Z,2.49
2022-11-03T05:04:08.606Z,3.74
2022-11-03T05:06:35.233Z,3.59
2022-11-03T05:09:03.212Z,2.22
2022-11-03T05:11:40.238Z,2.83
2022-11-03T05:14:20.633Z,4.17
2022-11-03T05:16:48.159Z,3.80
2022-11-03T05:19:26.533Z,4.00
2022-11-03T05:21:53.418Z,3.59
2022-11-03T05:24:21.296Z,3.62
2022-11-03T05:26:48.314Z,2.36
2022-11-03T05:29:21.750Z,4.13
2022-11-03T05:31:48.674Z,3.67
2022-11-03T05:34:33.091Z,3.78
2022-11-03T05:37:29.602Z,4.14
2022-11-03T05:40:05.090Z,3.25
2022-11-03T05:42:36.686Z,3.85
2022-11-03T05:45:24.611Z,3.54
2022-11-03T05:47:53.864Z,4.11
2022-11-03T05:50:22.171Z,2.61
2022-11-03T05:52:49.902Z,3.76
2022-11-03T05:55:34.979Z,3.72
2022-11-03T05:58:27.772Z,3.50
2022-11-03T06:00:54.459Z,3.54
2022-11-03T06:03:27.786Z,3.76
2022-11-03T06:05:54.348Z,4.00
2022-11-03T06:10:51.212Z,3.45
2022-11-03T06:13:25.165Z,2.30
2022-11-03T06:15:56.824Z,3.78
2022-11-03T06:18:24.601Z,3.33
2022-11-03T06:20:58.976Z,3.71
2022-11-03T06:23:25.567Z,3.61
2022-11-03T06:25:53.125Z,3.79
2022-11-03T06:28:29.145Z,2.87
2022-11-03T06:30:55.753Z,2.65
2022-11-03T06:33:27.183Z,2.98
2022-11-03T06:35:55.841Z,2.34
2022-11-03T06:38:27.622Z,2.51
2022-11-03T06:40:54.283Z,2.90
2022-11-03T06:43:22.161Z,4.31
2022-11-03T06:45:53.749Z,2.99
2022-11-03T06:48:26.287Z,3.22
2022-11-03T06:50:53.691Z,4.04
2022-11-03T06:53:31.718Z,4.28
2022-11-03T06:55:58.409Z,3.96
2022-11-03T06:58:25.335Z,4.54
2022-11-03T07:00:52.422Z,4.03
2022-11-03T07:03:33.639Z,4.36
2022-11-03T07:06:27.409Z,3.71
2022-11-03T07:09:01.213Z,4.12
2022-11-03T07:11:41.548Z,4.53
2022-11-03T07:14:13.017Z,4.13
2022-11-03T07:16:55.958Z,4.37
2022-11-03T07:19:25.208Z,3.50
2022-11-03T07:21:54.047Z,4.44
2022-11-03T07:24:42.181Z,4.73
2022-11-03T07:27:28.279Z,4.42
2022-11-03T07:29:58.507Z,4.66
2022-11-03T07:32:29.403Z,4.66
2022-11-03T07:35:25.772Z,5.14
2022-11-03T07:37:52.531Z,4.75
2022-11-03T07:40:21.883Z,4.52
2022-11-03T07:42:48.505Z,4.41
2022-11-03T07:45:40.521Z,5.46
2022-11-03T07:48:20.721Z,5.54
2022-11-03T07:50:48.552Z,5.50
2022-11-03T07:53:45.671Z,6.28
2022-11-03T07:56:19.493Z,7.40
2022-11-03T07:58:46.186Z,8.62
2022-11-03T08:01:26.601Z,8.28
2022-11-03T08:03:54.092Z,11.53
2022-11-03T08:06:20.671Z,12.12
2022-11-03T08:08:47.470Z,13.02
2022-11-03T08:13:45.715Z,13.33
2022-11-03T08:16:12.289Z,13.40
2022-11-03T08:18:39.060Z,13.60
2022-11-03T08:21:05.825Z,13.39
2022-11-03T08:23:32.853Z,13.08
2022-11-03T08:26:00.149Z,12.86
2022-11-03T08:28:26.875Z,14.34
2022-11-03T08:30:53.497Z,14.63
2022-11-03T08:33:20.216Z,15.04
2022-11-03T08:35:48.168Z,15.50
2022-11-03T08:38:14.779Z,15.46
2022-11-03T08:40:41.393Z,15.62
2022-11-03T08:43:08.058Z,15.42
2022-11-03T08:45:34.656Z,15.04
2022-11-03T08:48:01.416Z,14.94
2022-11-03T08:50:28.046Z,14.51
2022-11-03T08:52:54.708Z,15.06
2022-11-03T08:55:21.395Z,13.36
2022-11-03T08:57:48.089Z,13.98
2022-11-03T09:00:27.877Z,13.97
2022-11-03T09:02:54.466Z,12.85
2022-11-03T09:05:21.141Z,13.67
2022-11-03T09:10:37.013Z,12.92
2022-11-03T09:13:06.701Z,12.65
2022-11-03T09:15:33.476Z,11.78
2022-11-03T09:18:00.108Z,11.81
2022-11-03T09:20:27.090Z,12.23
2022-11-03T09:22:53.782Z,12.10
2022-11-03T09:25:20.362Z,12.08
2022-11-03T09:27:47.209Z,10.12
2022-11-03T09:30:14.604Z,11.32
2022-11-03T09:32:41.417Z,12.27
2022-11-03T09:35:09.764Z,11.54
2022-11-03T09:37:36.909Z,10.82
2022-11-03T09:40:04.293Z,12.01
2022-11-03T09:42:34.369Z,11.00
2022-11-03T09:45:01.351Z,12.01
2022-11-03T09:47:31.945Z,10.97
2022-11-03T09:49:58.527Z,11.60
2022-11-03T09:52:25.224Z,11.73
2022-11-03T09:54:53.064Z,11.75
2022-11-03T09:57:19.877Z,12.28
2022-11-03T09:59:48.392Z,11.90
2022-11-03T10:02:31.535Z,12.30
2022-11-03T10:05:00.358Z,12.68
2022-11-03T10:07:27.619Z,12.70
2022-11-03T10:09:54.343Z,12.25
2022-11-03T10:12:21.951Z,12.82
2022-11-03T10:14:48.540Z,12.65
2022-11-03T10:17:20.117Z,12.73
2022-11-03T10:19:51.883Z,12.21
2022-11-03T10:22:20.033Z,13.39
2022-11-03T10:24:46.779Z,13.47
2022-11-03T10:27:25.409Z,13.56
2022-11-03T10:30:07.908Z,12.78
2022-11-03T10:32:35.021Z,13.57
2022-11-03T10:35:24.528Z,12.88
2022-11-03T10:37:51.129Z,13.19
2022-11-03T10:40:51.979Z,13.42
2022-11-03T10:43:18.770Z,13.35
2022-11-03T10:45:45.511Z,13.93
2022-11-03T10:48:12.167Z,13.02
2022-11-03T10:50:42.329Z,14.26
2022-11-03T10:53:17.617Z,13.57
2022-11-03T10:55:44.512Z,13.47
2022-11-03T10:58:11.158Z,13.33
2022-11-03T11:00:38.030Z,14.46
2022-11-03T11:03:06.036Z,15.01
2022-11-03T11:05:33.180Z,14.36
2022-11-03T11:07:59.906Z,14.23
2022-11-03T11:10:27.931Z,15.08
2022-11-03T11:13:13.742Z,15.47
2022-11-03T11:15:47.146Z,15.91
2022-11-03T11:18:46.074Z,15.97
2022-11-03T11:21:15.624Z,16.06
2022-11-03T11:23:42.254Z,16.04
2022-11-03T11:26:08.887Z,15.99
2022-11-03T11:29:11.153Z,15.72
2022-11-03T11:31:46.537Z,15.18
2022-11-03T11:34:19.854Z,15.70
2022-11-03T11:36:47.526Z,15.42
2022-11-03T11:39:20.259Z,15.65
2022-11-03T11:42:09.908Z,15.72
2022-11-03T11:44:39.677Z,15.75
2022-11-03T11:47:26.349Z,15.78
2022-11-03T11:50:06.925Z,15.38
2022-11-03T11:52:47.103Z,15.45
2022-11-03T11:55:46.042Z,15.64
2022-11-03T11:58:32.344Z,15.86
2022-11-03T12:01:00.777Z,15.87
2022-11-03T12:03:46.761Z,14.24
2022-11-03T12:06:13.569Z,14.72
2022-11-03T12:08:40.267Z,15.54
2022-11-03T12:11:07.709Z,15.76
2022-11-03T12:13:42.912Z,15.68
2022-11-03T12:16:10.019Z,15.12
2022-11-03T12:18:44.750Z,15.13
2022-11-03T12:21:14.721Z,15.61
2022-11-03T12:23:45.352Z,15.53
2022-11-03T12:26:18.853Z,15.75
2022-11-03T12:28:45.555Z,15.27
2022-11-03T12:31:12.694Z,15.49
2022-11-03T12:33:39.624Z,15.12
2022-11-03T12:36:06.628Z,15.09
2022-11-03T12:38:33.392Z,15.15
2022-11-03T12:41:19.961Z,14.62
2022-11-03T12:43:47.287Z,15.19
2022-11-03T12:46:14.215Z,14.09
2022-11-03T12:48:44.226Z,14.31
2022-11-03T12:51:12.455Z,14.67
2022-11-03T12:53:39.771Z,14.67
2022-11-03T12:56:06.812Z,14.49
2022-11-03T12:58:33.534Z,14.44
2022-11-03T13:01:01.804Z,14.25
2022-11-03T13:03:29.171Z,14.45
2022-11-03T13:05:56.103Z,14.14
2022-11-03T13:08:38.095Z,14.13
2022-11-03T13:11:04.982Z,13.82
2022-11-03T13:13:32.795Z,13.84
2022-11-03T13:15:59.574Z,13.60
2022-11-03T13:18:26.365Z,13.56
2022-11-03T13:20:52.959Z,13.71
2022-11-03T13:23:22.980Z,13.79
2022-11-03T13:25:49.949Z,13.66
2022-11-03T13:28:16.591Z,13.88
2022-11-03T13:30:43.347Z,12.96
2022-11-03T13:33:10.448Z,13.77
2022-11-03T13:35:37.611Z,13.16
2022-11-03T13:38:04.264Z,13.29
2022-11-03T13:43:17.583Z,12.22
2022-11-03T13:45:44.358Z,13.86
2022-11-03T13:50:57.820Z,13.27
2022-11-03T13:56:16.843Z,13.47
2022-11-03T14:01:36.666Z,13.45
2022-11-03T14:06:50.308Z,13.50
2022-11-03T14:09:17.146Z,13.13
2022-11-03T14:12:02.319Z,13.04
2022-11-03T14:14:29.068Z,13.02
2022-11-03T14:16:55.859Z,13.18
2022-11-03T14:19:28.772Z,12.29
2022-11-03T14:22:00.389Z,12.78
2022-11-03T14:24:27.058Z,11.86
2022-11-03T14:26:53.847Z,12.34
2022-11-03T14:29:20.495Z,12.96
2022-11-03T14:31:47.256Z,12.73
2022-11-03T14:34:13.906Z,11.10
2022-11-03T14:36:40.572Z,13.11
2022-11-03T14:39:07.396Z,12.03
2022-11-03T14:41:52.573Z,12.53
2022-11-03T14:44:19.536Z,12.85
2022-11-03T14:46:46.352Z,13.15
2022-11-03T14:49:12.945Z,12.87
2022-11-03T14:51:39.675Z,12.36
2022-11-03T14:54:06.277Z,12.54
2022-11-03T14:56:32.913Z,12.72
2022-11-03T14:58:59.655Z,12.76
2022-11-03T15:01:26.437Z,12.40
2022-11-03T15:03:53.126Z,12.24
2022-11-03T15:06:19.769Z,12.41
2022-11-03T15:08:48.877Z,11.82
2022-11-03T15:11:17.391Z,11.77
2022-11-03T15:13:47.153Z,12.40
2022-11-03T15:16:15.177Z,12.33
2022-11-03T15:18:44.106Z,11.78
2022-11-03T15:21:11.575Z,11.98
2022-11-03T15:26:24.799Z,12.17
2022-11-03T15:28:51.568Z,11.99
2022-11-03T15:31:18.167Z,11.80
2022-11-03T15:33:44.736Z,12.10
2022-11-03T15:36:11.915Z,12.34
2022-11-03T15:38:38.634Z,12.16
2022-11-03T15:41:17.323Z,12.05
2022-11-03T15:43:44.608Z,12.03
2022-11-03T15:46:11.242Z,11.19
2022-11-03T15:48:38.211Z,10.67
2022-11-03T15:51:05.232Z,12.42
2022-11-03T15:53:31.867Z,11.80
2022-11-03T15:55:58.554Z,11.49
2022-11-03T15:58:25.208Z,10.64
2022-11-03T16:00:51.904Z,11.19
2022-11-03T16:03:18.717Z,12.12
2022-11-03T16:05:45.329Z,12.20
2022-11-03T16:08:12.324Z,12.10
2022-11-03T16:10:41.554Z,12.20
2022-11-03T16:13:10.817Z,12.25
2022-11-03T16:15:37.443Z,11.83
2022-11-03T16:18:04.055Z,12.13
2022-11-03T16:20:30.812Z,10.54
2022-11-03T16:22:57.525Z,12.24
2022-11-03T16:25:24.250Z,11.61
2022-11-03T16:27:50.979Z,11.96
2022-11-03T16:30:17.623Z,12.22
2022-11-03T16:32:44.301Z,11.96
2022-11-03T16:35:11.148Z,11.60
2022-11-03T16:37:37.783Z,12.37
2022-11-03T16:40:05.528Z,10.81
2022-11-03T16:42:38.524Z,12.06
2022-11-03T16:45:15.171Z,12.09
2022-11-03T16:47:41.770Z,12.10
2022-11-03T16:50:08.586Z,11.89
2022-11-03T16:52:35.281Z,11.97
2022-11-03T16:55:01.897Z,11.96
2022-11-03T16:57:28.707Z,10.83
2022-11-03T16:59:55.924Z,12.05
2022-11-03T17:02:22.648Z,11.40
2022-11-03T17:04:49.567Z,12.45
2022-11-03T17:07:16.158Z,11.92
2022-11-03T17:09:42.740Z,12.17
2022-11-03T17:12:09.314Z,12.04
2022-11-03T17:14:36.514Z,11.81
2022-11-03T17:17:03.160Z,11.79
2022-11-03T17:19:29.759Z,12.40
2022-11-03T17:21:56.533Z,9.98
2022-11-03T17:24:23.089Z,12.01
2022-11-03T17:27:15.890Z,12.43
2022-11-03T17:29:44.885Z,12.01
2022-11-03T17:32:13.839Z,12.33
2022-11-03T17:34:40.635Z,12.28
2022-11-03T17:37:07.382Z,11.21
2022-11-03T17:39:34.455Z,11.36
2022-11-03T17:42:22.880Z,12.11
2022-11-03T17:44:50.161Z,11.84
2022-11-03T17:47:17.700Z,11.94
2022-11-03T17:49:44.561Z,11.03
2022-11-03T17:52:16.673Z,11.69
2022-11-03T17:54:43.291Z,11.69
2022-11-03T17:57:15.463Z,12.07
2022-11-03T17:59:42.252Z,11.90
2022-11-03T18:02:14.097Z,11.65
2022-11-03T18:04:41.003Z,10.95
2022-11-03T18:07:21.604Z,11.42
2022-11-03T18:09:48.518Z,11.86
2022-11-03T18:12:33.739Z,11.52
2022-11-03T18:15:08.567Z,11.55
2022-11-03T18:17:35.580Z,10.94
2022-11-03T18:20:02.273Z,10.78
2022-11-03T18:22:28.866Z,11.15
2022-11-03T18:24:55.517Z,11.83
2022-11-03T18:27:25.242Z,11.47
2022-11-03T18:29:52.232Z,11.64
2022-11-03T18:32:19.372Z,11.14
2022-11-03T18:34:45.989Z,11.49
2022-11-03T18:37:12.686Z,11.83
2022-11-03T18:39:39.461Z,11.62
2022-11-03T18:42:13.615Z,11.99
2022-11-03T18:44:41.621Z,10.83
2022-11-03T18:47:08.287Z,10.82
2022-11-03T18:49:34.916Z,10.97
2022-11-03T18:52:07.325Z,10.69
2022-11-03T18:54:34.594Z,11.33
2022-11-03T18:57:01.322Z,11.63
2022-11-03T18:59:31.023Z,11.81
2022-11-03T19:01:58.132Z,11.52
2022-11-03T19:04:24.839Z,11.18
2022-11-03T19:06:51.794Z,11.02
2022-11-03T19:09:26.208Z,11.46
2022-11-03T19:11:54.598Z,11.39
2022-11-03T19:14:27.071Z,10.47
2022-11-03T19:17:24.304Z,10.50
2022-11-03T19:19:41.307Z,10.47
2022-11-03T19:22:15.890Z,11.22
2022-11-03T19:24:43.054Z,11.53
2022-11-03T19:27:18.472Z,11.48
2022-11-03T19:29:45.171Z,10.73
2022-11-03T19:32:20.834Z,11.08
2022-11-03T19:34:56.354Z,11.29
2022-11-03T19:37:22.975Z,11.13
2022-11-03T19:39:49.604Z,9.67
2022-11-03T19:42:29.142Z,11.19
2022-11-03T19:44:56.205Z,10.23
2022-11-03T19:47:25.000Z,11.14
2022-11-03T19:49:53.665Z,10.98
2022-11-03T19:52:20.508Z,10.74
2022-11-03T19:54:48.340Z,9.28
2022-11-03T19:57:16.890Z,10.48
2022-11-03T19:59:43.942Z,10.67
2022-11-03T20:02:11.836Z,10.29
2022-11-03T20:04:39.467Z,8.96
2022-11-03T20:07:06.723Z,10.46
2022-11-03T20:09:33.571Z,10.79
2022-11-03T20:12:04.466Z,10.88
2022-11-03T20:14:31.536Z,10.15
2022-11-03T20:16:59.536Z,9.81
2022-11-03T20:19:26.653Z,10.24
2022-11-03T20:21:53.349Z,10.72
2022-11-03T20:24:20.094Z,10.10
2022-11-03T20:26:47.011Z,10.55
2022-11-03T20:29:14.689Z,10.74
2022-11-03T20:31:42.459Z,9.50
2022-11-03T20:34:15.297Z,10.65
2022-11-03T20:36:42.175Z,9.40
2022-11-03T20:39:13.464Z,10.43
2022-11-03T20:41:42.205Z,10.17
2022-11-03T20:44:09.348Z,10.75
2022-11-03T20:46:36.016Z,10.41
2022-11-03T20:49:02.840Z,10.33
2022-11-03T20:51:38.043Z,10.07
2022-11-03T20:54:12.368Z,10.47
2022-11-03T20:56:38.963Z,10.32
2022-11-03T20:59:05.625Z,9.21
2022-11-03T21:01:33.389Z,10.28
2022-11-03T21:04:00.797Z,10.43
2022-11-03T21:06:29.144Z,10.32
2022-11-03T21:08:56.162Z,10.28
2022-11-03T21:11:24.015Z,10.28
2022-11-03T21:13:55.650Z,9.25
2022-11-03T21:16:41.777Z,9.89
2022-11-03T21:19:38.791Z,9.79
2022-11-03T21:22:45.936Z,10.04
2022-11-03T21:25:14.122Z,10.06
2022-11-03T21:27:42.162Z,9.22
2022-11-03T21:30:14.189Z,9.11
2022-11-03T21:32:41.301Z,9.74
2022-11-03T21:35:09.877Z,10.19
2022-11-03T21:37:36.846Z,10.00
2022-11-03T21:40:03.488Z,10.00
2022-11-03T21:42:48.856Z,9.79
2022-11-03T21:45:15.847Z,10.24
2022-11-03T21:48:02.491Z,8.78
2022-11-03T21:50:29.097Z,9.67
2022-11-03T21:52:55.771Z,9.95
2022-11-03T21:55:22.464Z,9.92
2022-11-03T21:57:49.095Z,9.18
2022-11-03T22:00:16.429Z,10.14
2022-11-03T22:02:43.217Z,9.87
2022-11-03T22:05:11.180Z,9.99
2022-11-03T22:07:37.861Z,9.66
2022-11-03T22:10:05.212Z,10.26
2022-11-03T22:12:31.795Z,9.95
2022-11-03T22:15:16.931Z,9.29
2022-11-03T22:17:46.742Z,10.39
2022-11-03T22:20:31.736Z,9.05
2022-11-03T22:23:20.045Z,8.56
2022-11-03T22:26:08.274Z,10.40
2022-11-03T22:28:34.967Z,10.46
2022-11-03T22:31:22.768Z,9.45
2022-11-03T22:34:08.035Z,10.21
2022-11-03T22:36:34.688Z,9.82
2022-11-03T22:39:19.777Z,9.15
2022-11-03T22:42:22.315Z,10.32
2022-11-03T22:45:07.505Z,9.72
2022-11-03T22:47:34.142Z,10.67
2022-11-03T22:50:00.714Z,10.72
2022-11-03T22:52:27.316Z,10.15
2022-11-03T22:54:53.962Z,9.57
2022-11-03T22:57:20.566Z,10.88
2022-11-03T22:59:47.585Z,10.32
2022-11-03T23:02:14.472Z,10.47
2022-11-03T23:04:41.253Z,10.34
2022-11-03T23:07:07.869Z,9.37
2022-11-03T23:09:34.506Z,9.81
2022-11-03T23:12:01.096Z,9.94
2022-11-03T23:14:47.711Z,9.28
2022-11-03T23:17:14.286Z,9.24
2022-11-03T23:19:59.618Z,9.83
2022-11-03T23:22:26.073Z,10.64
2022-11-03T23:25:01.654Z,10.48
2022-11-03T23:27:28.620Z,10.32
2022-11-03T23:29:55.474Z,10.23
2022-11-03T23:32:22.073Z,9.19
2022-11-03T23:34:48.713Z,10.50
2022-11-03T23:37:15.349Z,9.76
2022-11-03T23:39:41.966Z,9.46
2022-11-03T23:42:08.663Z,10.34
2022-11-03T23:44:55.280Z,9.10
2022-11-03T23:47:40.353Z,10.18
2022-11-03T23:50:07.297Z,9.66
2022-11-03T23:52:34.035Z,10.25
2022-11-03T23:55:00.581Z,10.59
2022-11-03T23:57:45.747Z,10.02
